Parks Crossroads, North Carolina
Current Conditions -  °F | °C
As of 6:55 PM on Wednesday 28 Jan 2015 (Local Time) from KHBI Reporting Station
Clear Clear  
Wind Chill: 34°   Ceiling: Unl
Heat Index: 34°   Visibility: 10mi
Dew Point: 16°   Wind: 0mph
Humidity: 47%   Direction: NA
Pressure: 30.3"   Gusts: NA
Location:  35.6832°N, 79.6174°W
Report Text: KHBI 282355Z AUTO 00000KT 10SM CLR 01/M09 A3030 RMK AO2 T00121091 10068 20012
Loading
Personal Weather Stations






























Interactive Weather Map New forecast layout! Learn more

10-Day Weather Forecast

Advertisements
Track Severe Weather on mobile